Airfield :
LOGIN :

Register | Disclaimer

   EN    FR    IT 

 










Legend :    VFR   Marginal VFR   IFR   Intensive IFR   Very Intensive IFR
Visi :
Ceiling :
>= 8 km
>= 3000ft
5 to 8 km
1000 to 3000 ft
1500m to 5 km
500 to 1000 ft
800 to 1500m
200 to 500 ft
< 800m
< 200 ft
Symbols :   Thunderstorms  Fog  Heavy snow  Heavy precipitations  Wind > 20 kt
SIGMETs :     Misc.  Thunderstorms  Icing  Turbulence  Mountain Waves  Volcanic Ashes






- Airport Elevation : 1260 ft
- IATA code : LDE


LFBT - Tarbes / Ossun

CURRENT METAR :
  • 191030Z AUTO 24012KT 9999 FEW023 BKN052 OVC062 17/13 Q1022 TEMPO 4000 SHRA FEW014 FEW025CB BKN030TCU

EXPIRED METARs :
  • 191000Z AUTO 25010KT 220V280 9999 FEW025 SCT031 BKN046 17/12 Q1023 TEMPO 4000 SHRA FEW014 FEW025CB BKN030TCU
  • 190930Z AUTO 26011KT 230V300 9999 BKN025 BKN031 BKN048 17/12 Q1022 TEMPO 4000 SHRA FEW014 FEW025CB BKN030TCU
  • 190900Z AUTO 25010KT 210V270 9999 BKN025 17/13 Q1022 TEMPO 4000 SHRA FEW014 FEW025CB BKN030TCU
  • 190830Z AUTO 22008KT 9999 SCT024 SCT060 16/14 Q1022 TEMPO 4000 SHRA FEW014 FEW025CB BKN030TCU
  • 190800Z AUTO 23011KT 9999 FEW026 BKN054 15/13 Q1022 TEMPO 4000 SHRA FEW014 FEW025CB BKN030TCU

TAF TAF LFBT
Valid from the 19 at 06:00 until the 20 at 06:00 UTC


190500Z 1906/2006 25008KT 9999 BKN050
PROB30
TEMPO 1906/1924 4000 SHRA FEW014 FEW025CB BKN030TCU
TEMPO 2004/2006 4000 -SHRA BKN050TCU



MET'MAP, your aeronautical weather chart ! - Copyright ORBIFLY December 2007 - Disclaimer

ORBIFLY MET'MAP TEAM :

Programming & Development : Alexandra Zaïnal
Concept & original design : Baudouin d'Aumeries
Assistance for programming : Marc-Olivier Méhu
Technical & hardware support : Manuel Goepfert

Contact : metmap@orbifly.com




SOURCES & CREDITS :

   NOAA